School House Canyon (220) Station Data

Red Flag Warning: No
Fire Weather Zone: 250
SDGE Region: Ramona
Lat/Lon: 33.146/-116.641

Observations

Time Wind Speed/Gust Temp(F) RH Fuel Moist Fuel Temp(F) Dewpt(F) Tmax(F) Tmin(F) Accum Precip 10-min Precip SL Press(mb)
4/29 11:50pm 27 5 G 7 49° 30% - - 19° 66.4° 47.9° - - -
4/29 11:40pm 28 5 G 7 50° 30% - - 20° 66.4° 47.9° - - -
4/29 11:30pm 26 6 G 8 51° 29% - - 20° 66.4° 47.9° - - -
4/29 11:20pm 27 8 G 9 51° 31% - - 21° 66.4° 47.9° - - -
4/29 11:10pm 26 6 G 7 49° 35% - - 22° 66.4° 47.9° - - -
4/29 11:00pm 25 5 G 7 49° 35% - - 23° 66.4° 47.9° - - -
4/29 10:50pm 24 5 G 6 49° 35% - - 23° 66.4° 47.9° - - -
4/29 10:40pm 28 6 G 8 51° 32% - - 22° 66.4° 48.6° - - -
4/29 10:30pm 28 6 G 8 51° 32% - - 23° 66.4° 48.6° - - -
4/29 10:20pm 30 6 G 8 50° 34% - - 23° 66.4° 48.6° - - -
4/29 10:10pm 24 5 G 6 50° 35% - - 24° 66.4° 48.6° - - -
4/29 10:00pm 28 5 G 7 50° 36% - - 24° 66.4° 48.6° - - -
4/29 9:50pm 16 5 G 7 51° 34% - - 24° 66.4° 48.6° - - -
4/29 9:40pm 29 4 G 6 51° 34% - - 24° 66.4° 48.6° - - -
4/29 9:30pm 33 5 G 7 50° 36% - - 24° 66.4° 48.6° - - -
4/29 9:20pm 22 4 G 5 51° 35% - - 24° 66.4° 48.6° - - -
4/29 9:10pm 30 4 G 6 52° 34% - - 24° 66.4° 48.6° - - -
4/29 9:00pm 28 6 G 7 51° 35% - - 24° 66.4° 48.6° - - -
4/29 8:50pm 29 6 G 7 52° 34% - - 24° 66.4° 48.6° - - -
4/29 8:40pm 31 6 G 8 51° 35% - - 25° 66.4° 48.6° - - -
4/29 8:30pm 28 6 G 7 52° 34% - - 25° 66.4° 48.6° - - -
4/29 8:20pm 28 4 G 7 52° 35% - - 25° 66.4° 48.6° - - -
4/29 8:10pm 32 4 G 6 52° 34% - - 25° 66.4° 48.6° - - -
4/29 8:00pm 20 4 G 4 54° 32% - - 24° 66.4° 48.6° - - -
4/29 7:50pm 35 3 G 4 55° 30% - - 24° 66.4° 48.6° - - -
4/29 7:40pm 39 1 G 3 56° 28% - - 23° 66.4° 48.6° - - -
4/29 7:30pm 210 2 G 4 57° 27% - - 23° 66.4° 48.6° - - -
4/29 7:20pm 208 2 G 4 58° 26% - - 24° 66.4° 48.6° - - -
4/29 7:10pm 192 3 G 6 59° 26% - - 24° 66.4° 48.6° - - -
4/29 7:00pm 220 3 G 6 60° 25% - - 25° 66.4° 48.6° - - -
4/29 6:50pm 199 5 G 10 61° 25% - - 25° 66.4° 48.6° - - -
4/29 6:40pm 228 5 G 9 62° 23% - - 25° 66.4° 48.6° - - -
4/29 6:30pm 231 6 G 13 63° 22% - - 24° 66.4° 48.6° - - -
4/29 6:20pm 223 6 G 10 64° 21% - - 23° 66.4° 48.6° - - -
4/29 6:10pm 216 8 G 13 65° 18% - - 20° 66.4° 48.6° - - -
4/29 6:00pm 296 2 G 7 65° 15% - - 17° 66.4° 48.6° - - -
4/29 5:50pm 47 6 G 11 64° 13% - - 12° 66.2° 48.6° - - -
4/29 5:40pm 37 6 G 15 65° 12% - - 12° 66.2° 48.6° - - -
4/29 5:30pm 61 8 G 15 65° 13% - - 12° 66.2° 48.6° - - -
4/29 5:20pm 55 9 G 17 65° 13% - - 12° 66.2° 48.6° - - -
4/29 5:10pm 48 11 G 19 65° 12% - - 12° 66.2° 48.6° - - -
4/29 5:00pm 48 8 G 15 65° 13% - - 12° 66.1° 48.6° - - -
4/29 4:50pm 57 9 G 15 65° 13% - - 13° 66.1° 48.6° - - -
4/29 4:40pm 59 11 G 20 65° 12% - - 12° 65.9° 48.6° - - -
4/29 4:30pm 61 10 G 15 65° 12% - - 12° 65.9° 48.6° - - -
4/29 4:20pm 66 7 G 13 65° 12% - - 11° 65.9° 48.6° - - -
4/29 4:10pm 60 9 G 15 64° 12% - - 11° 65.9° 48.6° - - -
4/29 4:00pm 64 7 G 13 65° 12% - - 11° 65.9° 48.6° - - -
4/29 3:50pm 60 8 G 14 65° 11% - - 65.9° 48.6° - - -
4/29 3:40pm 69 9 G 15 65° 12% - - 11° 65.9° 48.6° - - -
4/29 3:30pm 66 8 G 12 65° 12% - - 11° 65.9° 48.6° - - -
4/29 3:20pm 75 7 G 13 64° 12% - - 10° 65.9° 48.6° - - -
4/29 3:10pm 69 7 G 13 65° 12% - - 12° 65.9° 48.6° - - -
4/29 3:00pm 80 6 G 14 64° 12% - - 11° 65.9° 48.6° - - -
4/29 2:50pm 57 9 G 16 64° 12% - - 11° 65.9° 48.6° - - -
4/29 2:40pm 64 10 G 16 64° 12% - - 65.9° 48.6° - - -
4/29 2:30pm 41 4 G 11 65° 13% - - 13° 65.9° 48.6° - - -
4/29 2:20pm 61 6 G 13 63° 12% - - 10° 64.5° 48.6° - - -
4/29 2:10pm 58 8 G 15 63° 12% - - 10° 64.5° 48.6° - - -
4/29 2:00pm 50 10 G 20 62° 12% - - 64.5° 48.6° - - -
4/29 1:50pm 72 7 G 16 63° 13% - - 11° 64.5° 48.6° - - -
4/29 1:40pm 59 7 G 14 63° 12% - - 10° 64.5° 48.6° - - -
4/29 1:30pm 59 8 G 18 62° 12% - - 63.2° 48.6° - - -
4/29 1:20pm 43 8 G 16 62° 12% - - 63° 48.6° - - -
4/29 1:10pm 60 7 G 17 62° 12% - - 62.5° 48.6° - - -
4/29 1:00pm 66 8 G 17 62° 12% - - 62.5° 48.6° - - -
4/29 12:50pm 74 8 G 16 61° 12% - - 62.1° 48.6° - - -
4/29 12:40pm 54 9 G 18 61° 12% - - 62° 48.6° - - -
4/29 12:30pm 63 8 G 15 61° 13% - - 61.7° 48.6° - - -
4/29 12:20pm 54 7 G 16 60° 14% - - 10° 61.2° 48.6° - - -
4/29 12:10pm 58 11 G 19 59° 13% - - 61° 48.6° - - -
4/29 12:00pm 55 9 G 19 60° 14% - - 10° 61° 48.6° - - -
4/29 11:50am 58 8 G 20 60° 14% - - 10° 61° 48.6° - - -
4/29 11:40am 65 7 G 18 59° 14% - - 10° 60.1° 48.6° - - -
4/29 11:30am 58 12 G 26 58° 13% - - 59.5° 48.6° - - -
4/29 11:20am 63 13 G 21 58° 14% - - 59.1° 48.6° - - -
4/29 11:10am 57 15 G 24 58° 13% - - 59.1° 48.6° - - -
4/29 11:00am 65 13 G 23 58° 14% - - 59.1° 48.6° - - -
4/29 10:50am 59 8 G 18 58° 16% - - 12° 59.1° 48.6° - - -
4/29 10:40am 75 10 G 23 57° 16% - - 11° 57.7° 48.6° - - -
4/29 10:30am 90 14 G 27 56° 15% - - 56.8° 48.6° - - -
4/29 10:20am 87 18 G 31 56° 15% - - 56.7° 48.6° - - -
4/29 10:10am 86 16 G 27 56° 16% - - 10° 56.7° 48.6° - - -
4/29 10:00am 84 14 G 24 55° 16% - - 10° 56.2° 48.6° - - -
4/29 9:50am 79 17 G 26 55° 16% - - 55.8° 48.6° - - -
4/29 9:40am 64 17 G 28 54° 16% - - 55.8° 48.6° - - -
4/29 9:30am 59 17 G 30 55° 16% - - 10° 55.8° 48.6° - - -
4/29 9:20am 62 14 G 30 54° 17% - - 10° 55.8° 48.6° - - -
4/29 9:10am 59 16 G 27 54° 17% - - 10° 55.8° 48.6° - - -
4/29 9:00am 62 20 G 33 54° 17% - - 10° 55.8° 48.6° - - -
4/29 8:50am 51 18 G 31 53° 17% - - 55.8° 48.6° - - -
4/29 8:40am 38 21 G 35 53° 16% - - 55.8° 48.6° - - -
4/29 8:30am 39 21 G 36 53° 15% - - 55.8° 48.6° - - -
4/29 8:20am 45 20 G 33 53° 16% - - 55.8° 48.6° - - -
4/29 8:10am 49 17 G 26 52° 16% - - 55.8° 48.6° - - -
4/29 8:00am 56 17 G 31 52° 16% - - 55.8° 48.6° - - -
4/29 7:50am 58 15 G 27 51° 15% - - 55.8° 48.6° - - -
4/29 7:40am 59 17 G 29 51° 15% - - 55.8° 48.6° - - -
4/29 7:30am 60 16 G 28 50° 17% - - 55.8° 48.6° - - -
4/29 7:20am 58 13 G 24 50° 17% - - 55.8° 48.6° - - -
4/29 7:10am 52 16 G 27 51° 15% - - 55.8° 48.6° - - -
4/29 7:00am 46 19 G 31 50° 15% - - 55.8° 48.6° - - -
4/29 6:50am 44 22 G 35 50° 16% - - 55.8° 48.6° - - -
4/29 6:40am 45 22 G 32 49° 17% - - 55.8° 48.6° - - -
4/29 6:30am 43 23 G 32 49° 18% - - 55.8° 48.6° - - -
4/29 6:20am 45 22 G 31 49° 18% - - 55.8° 48.6° - - -
4/29 6:10am 49 18 G 28 49° 18% - - 55.8° 48.6° - - -
4/29 6:00am 54 16 G 26 50° 17% - - 55.8° 48.9° - - -
4/29 5:50am 50 15 G 23 52° 15% - - 55.8° 49.6° - - -
4/29 5:40am 39 19 G 28 52° 15% - - 55.8° 49.6° - - -
4/29 5:30am 40 20 G 28 51° 17% - - 55.8° 49.6° - - -
4/29 5:20am 41 22 G 31 50° 18% - - 55.8° 49.6° - - -
4/29 5:10am 34 20 G 29 50° 17% - - 55.8° 49.9° - - -
4/29 5:00am 36 22 G 31 51° 17% - - 55.8° 50.5° - - -
4/29 4:50am 41 23 G 31 51° 17% - - 55.8° 50.6° - - -
4/29 4:40am 41 20 G 29 51° 17% - - 55.8° 50.6° - - -
4/29 4:30am 41 19 G 26 51° 18% - - 55.8° 51° - - -
4/29 4:20am 42 20 G 28 51° 18% - - 55.8° 51° - - -
4/29 4:10am 42 21 G 29 52° 18% - - 55.8° 51.1° - - -
4/29 4:00am 38 20 G 26 52° 18% - - 10° 55.8° 51.1° - - -
4/29 3:50am 40 17 G 24 52° 18% - - 10° 55.8° 51.1° - - -
4/29 3:40am 34 17 G 24 52° 18% - - 10° 55.8° 51.1° - - -
4/29 3:30am 34 17 G 23 52° 18% - - 10° 55.8° 51.1° - - -
4/29 3:20am 37 16 G 23 52° 18% - - 10° 55.8° 51.5° - - -
4/29 3:10am 36 18 G 26 52° 18% - - 10° 55.8° 51.5° - - -
4/29 3:00am 39 16 G 23 52° 19% - - 11° 55.8° 51.5° - - -
4/29 2:50am 36 16 G 27 52° 19% - - 11° 55.8° 51.9° - - -
4/29 2:40am 35 16 G 22 52° 18% - - 11° 55.8° 52° - - -
4/29 2:30am 29 15 G 23 53° 19% - - 11° 55.8° 52.3° - - -
4/29 2:20am 28 16 G 23 53° 18% - - 11° 55.8° 52.5° - - -
4/29 2:10am 29 15 G 23 53° 18% - - 11° 55.8° 52.8° - - -
4/29 2:00am 29 15 G 21 54° 17% - - 10° 55.8° 52.9° - - -
4/29 1:50am 33 14 G 21 54° 18% - - 10° 55.8° 52.9° - - -
4/29 1:40am 34 14 G 19 54° 17% - - 10° 55.8° 53.2° - - -
4/29 1:30am 30 15 G 21 54° 17% - - 10° 55.8° 53.3° - - -
4/29 1:20am 27 15 G 22 54° 17% - - 10° 55.8° 53.3° - - -
4/29 1:10am 23 14 G 21 54° 17% - - 10° 55.8° 53.4° - - -
4/29 1:00am 26 14 G 19 54° 17% - - 10° 55.8° 53.9° - - -
4/29 12:50am 27 13 G 22 55° 17% - - 11° 55.8° 54° - - -
4/29 12:40am 30 12 G 18 55° 18% - - 12° 55.8° 54.3° - - -
4/29 12:30am 27 13 G 17 55° 18% - - 12° 55.8° 54.7° - - -
4/29 12:20am 30 13 G 19 55° 17% - - 11° 55.8° 54.7° - - -
4/29 12:10am 29 14 G 19 55° 17% - - 12° 55.8° 55.1° - - -
4/29 12:00am 29 13 G 18 55° 18% - - 13° 66.5° 43.8° - - -
4/28 11:50pm 26 12 G 19 55° 19% - - 14° 66.5° 43.8° - - -
4/28 11:40pm 27 11 G 17 55° 20% - - 15° 66.5° 43.8° - - -
4/28 11:30pm 29 12 G 19 56° 20% - - 15° 66.5° 43.8° - - -
4/28 11:20pm 29 12 G 17 56° 20% - - 16° 66.5° 43.8° - - -
4/28 11:10pm 25 12 G 19 56° 21% - - 16° 66.5° 43.8° - - -
4/28 11:00pm 31 13 G 21 57° 21% - - 17° 66.5° 43.8° - - -
4/28 10:50pm 35 12 G 18 57° 24% - - 20° 66.5° 43.8° - - -
4/28 10:40pm 38 10 G 17 57° 31% - - 26° 66.5° 43.8° - - -
4/28 10:30pm 31 11 G 16 56° 43% - - 34° 66.5° 43.8° - - -
4/28 10:20pm 27 9 G 15 55° 50% - - 36° 66.5° 43.8° - - -
4/28 10:10pm 16 8 G 10 55° 52% - - 37° 66.5° 43.8° - - -
4/28 10:00pm 14 7 G 10 54° 53% - - 38° 66.5° 43.8° - - -
4/28 9:50pm 21 6 G 9 55° 54% - - 38° 66.5° 43.8° - - -
4/28 9:40pm 18 7 G 8 54° 55% - - 38° 66.5° 43.8° - - -
4/28 9:30pm 16 8 G 10 54° 56% - - 38° 66.5° 43.8° - - -
4/28 9:20pm 17 8 G 10 54° 55% - - 39° 66.5° 43.8° - - -
4/28 9:10pm 14 8 G 9 53° 57% - - 39° 66.5° 43.8° - - -
4/28 9:00pm 11 8 G 9 53° 57% - - 38° 66.5° 43.8° - - -
4/28 8:50pm 5 6 G 8 53° 55% - - 38° 66.5° 43.8° - - -
4/28 8:40pm 4 5 G 6 52° 57% - - 38° 66.5° 43.8° - - -
4/28 8:30pm 7 5 G 7 52° 58% - - 38° 66.5° 43.8° - - -
4/28 8:20pm 4 5 G 7 53° 56% - - 38° 66.5° 43.8° - - -
4/28 8:10pm 5 6 G 9 53° 58% - - 39° 66.5° 43.8° - - -
4/28 8:00pm 16 7 G 9 53° 61% - - 40° 66.5° 43.8° - - -
4/28 7:50pm 23 5 G 7 52° 62% - - 40° 66.5° 43.8° - - -
4/28 7:40pm 24 4 G 6 53° 59% - - 39° 66.5° 43.8° - - -
4/28 7:30pm 185 2 G 4 54° 54% - - 38° 66.5° 43.8° - - -
4/28 7:20pm 306 1 G 2 55° 55% - - 39° 66.5° 43.8° - - -
4/28 7:10pm 179 1 G 3 56° 53% - - 39° 66.5° 43.8° - - -
4/28 7:00pm 211 1 G 4 56° 51% - - 38° 66.5° 43.8° - - -
4/28 6:50pm 230 3 G 6 56° 52% - - 39° 66.5° 43.8° - - -
4/28 6:40pm 221 3 G 5 56° 57% - - 41° 66.5° 43.8° - - -
4/28 6:30pm 205 4 G 7 57° 58% - - 42° 66.5° 43.8° - - -
4/28 6:20pm 224 4 G 8 57° 60% - - 43° 66.5° 43.8° - - -
4/28 6:10pm 219 5 G 9 58° 59% - - 44° 66.5° 43.8° - - -
4/28 6:00pm 210 4 G 9 58° 59% - - 44° 66.5° 43.8° - - -